createdAt,value
2022-12-09T00:00:13.823Z,63.40
2022-12-09T00:02:40.861Z,63.55
2022-12-09T00:05:07.997Z,62.74
2022-12-09T00:07:36.552Z,63.12
2022-12-09T00:10:05.028Z,62.71
2022-12-09T00:12:31.857Z,62.76
2022-12-09T00:14:58.393Z,62.63
2022-12-09T00:17:25.177Z,63.42
2022-12-09T00:19:52.172Z,63.47
2022-12-09T00:22:18.722Z,64.87
2022-12-09T00:24:45.674Z,64.01
2022-12-09T00:27:12.197Z,63.21
2022-12-09T00:29:38.742Z,63.62
2022-12-09T00:32:05.657Z,63.73
2022-12-09T00:34:32.481Z,63.52
2022-12-09T00:36:59.091Z,63.37
2022-12-09T00:39:26.027Z,63.41
2022-12-09T00:41:52.924Z,63.42
2022-12-09T00:44:19.454Z,63.14
2022-12-09T00:46:46.159Z,63.04
2022-12-09T00:49:12.843Z,63.03
2022-12-09T00:51:39.642Z,62.75
2022-12-09T00:54:06.309Z,62.36
2022-12-09T00:56:33.251Z,62.80
2022-12-09T00:58:59.883Z,62.77
2022-12-09T01:01:27.619Z,63.21
2022-12-09T01:03:54.544Z,62.97
2022-12-09T01:06:22.795Z,62.62
2022-12-09T01:08:49.421Z,62.92
2022-12-09T01:11:22.121Z,62.18
2022-12-09T01:13:49.418Z,61.89
2022-12-09T01:16:21.324Z,61.57
2022-12-09T01:18:48.760Z,61.60
2022-12-09T01:21:15.458Z,61.58
2022-12-09T01:23:42.537Z,61.04
2022-12-09T01:26:09.803Z,61.03
2022-12-09T01:28:37.783Z,61.01
2022-12-09T01:31:14.083Z,61.58
2022-12-09T01:33:41.967Z,62.14
2022-12-09T01:36:15.637Z,63.50
2022-12-09T01:38:42.502Z,63.20
2022-12-09T01:41:09.462Z,62.44
2022-12-09T01:43:37.766Z,62.60
2022-12-09T01:46:04.926Z,63.08
2022-12-09T01:48:34.364Z,62.85
2022-12-09T01:51:04.662Z,62.86
2022-12-09T01:53:35.585Z,62.60
2022-12-09T01:56:06.591Z,63.64
2022-12-09T01:58:33.219Z,63.16
2022-12-09T02:00:59.974Z,62.38
2022-12-09T02:03:27.001Z,62.22
2022-12-09T02:05:54.216Z,61.78
2022-12-09T02:08:21.239Z,61.88
2022-12-09T02:11:05.550Z,61.69
2022-12-09T02:13:45.556Z,61.50
2022-12-09T02:16:16.415Z,61.34
2022-12-09T02:19:22.801Z,61.66
2022-12-09T02:21:57.616Z,60.90
2022-12-09T02:24:50.478Z,61.85
2022-12-09T02:27:20.658Z,61.44
2022-12-09T02:30:08.752Z,61.67
2022-12-09T02:32:53.837Z,61.36
2022-12-09T02:35:25.219Z,61.68
2022-12-09T02:37:57.112Z,61.51
2022-12-09T02:40:31.375Z,61.08
2022-12-09T02:42:58.839Z,61.06
2022-12-09T02:45:27.049Z,60.46
2022-12-09T02:47:54.537Z,61.32
2022-12-09T02:50:26.052Z,61.74
2022-12-09T02:52:53.505Z,61.67
2022-12-09T02:55:21.222Z,60.82
2022-12-09T02:57:49.941Z,60.46
2022-12-09T03:00:17.031Z,60.57
2022-12-09T03:02:46.709Z,60.62
2022-12-09T03:05:25.625Z,60.37
2022-12-09T03:08:14.251Z,60.26
2022-12-09T03:11:10.625Z,60.36
2022-12-09T03:13:46.188Z,60.02
2022-12-09T03:16:35.792Z,60.46
2022-12-09T03:19:19.294Z,61.26
2022-12-09T03:21:50.324Z,61.08
2022-12-09T03:24:21.610Z,60.59
2022-12-09T03:26:49.120Z,60.35
2022-12-09T03:29:18.345Z,60.65
2022-12-09T03:31:46.642Z,60.64
2022-12-09T03:34:19.603Z,60.25
2022-12-09T03:36:48.589Z,59.91
2022-12-09T03:39:18.639Z,60.68
2022-12-09T03:41:48.232Z,60.55
2022-12-09T03:44:32.462Z,60.26
2022-12-09T03:47:00.179Z,59.80
2022-12-09T03:49:27.066Z,59.89
2022-12-09T03:52:05.200Z,59.89
2022-12-09T03:54:41.420Z,60.02
2022-12-09T03:57:15.483Z,59.57
2022-12-09T03:59:50.323Z,59.77
2022-12-09T04:02:17.383Z,59.58
2022-12-09T04:04:44.447Z,59.48
2022-12-09T04:07:11.496Z,59.61
2022-12-09T04:09:38.132Z,59.42
2022-12-09T04:12:05.557Z,59.39
2022-12-09T04:14:32.320Z,59.38
2022-12-09T04:16:58.914Z,60.09
2022-12-09T04:19:25.587Z,60.88
2022-12-09T04:21:52.158Z,61.27
2022-12-09T04:24:18.989Z,61.52
2022-12-09T04:26:45.822Z,61.53
2022-12-09T04:29:13.180Z,61.34
2022-12-09T04:31:39.735Z,61.08
2022-12-09T04:34:09.542Z,61.33
2022-12-09T04:36:37.260Z,60.89
2022-12-09T04:39:04.238Z,60.69
2022-12-09T04:41:31.022Z,61.34
2022-12-09T04:43:57.690Z,60.99
2022-12-09T04:46:24.663Z,60.42
2022-12-09T04:48:52.748Z,60.51
2022-12-09T04:51:19.540Z,60.79
2022-12-09T04:53:46.383Z,60.75
2022-12-09T04:56:16.532Z,60.61
2022-12-09T04:58:44.918Z,60.35
2022-12-09T05:01:18.467Z,61.79
2022-12-09T05:03:53.237Z,60.66
2022-12-09T05:06:22.115Z,60.73
2022-12-09T05:08:49.348Z,60.62
2022-12-09T05:11:17.209Z,60.49
2022-12-09T05:13:44.788Z,59.71
2022-12-09T05:16:16.338Z,59.77
2022-12-09T05:18:44.184Z,59.77
2022-12-09T05:21:15.373Z,59.72
2022-12-09T05:23:42.375Z,59.68
2022-12-09T05:26:11.927Z,59.63
2022-12-09T05:28:38.931Z,59.27
2022-12-09T05:31:13.231Z,60.24
2022-12-09T05:33:40.059Z,59.56
2022-12-09T05:36:15.705Z,59.13
2022-12-09T05:38:43.068Z,59.25
2022-12-09T05:41:10.410Z,59.23
2022-12-09T05:43:37.724Z,59.46
2022-12-09T05:46:05.671Z,59.17
2022-12-09T05:48:32.790Z,59.35
2022-12-09T05:51:01.981Z,59.26
2022-12-09T05:53:29.162Z,58.93
2022-12-09T05:55:56.506Z,58.75
2022-12-09T05:58:23.496Z,58.78
2022-12-09T06:00:50.317Z,58.67
2022-12-09T06:03:17.053Z,59.28
2022-12-09T06:05:44.241Z,59.05
2022-12-09T06:08:11.371Z,58.93
2022-12-09T06:10:41.554Z,59.16
2022-12-09T06:13:08.827Z,59.21
2022-12-09T06:15:36.007Z,60.04
2022-12-09T06:18:03.061Z,59.28
2022-12-09T06:20:29.972Z,58.94
2022-12-09T06:22:57.106Z,59.15
2022-12-09T06:25:24.028Z,58.84
2022-12-09T06:27:52.103Z,59.16
2022-12-09T06:30:19.761Z,59.63
2022-12-09T06:32:46.782Z,59.14
2022-12-09T06:35:14.083Z,59.03
2022-12-09T06:37:41.772Z,58.74
2022-12-09T06:40:09.307Z,58.66
2022-12-09T06:42:36.332Z,58.63
2022-12-09T06:45:03.920Z,59.28
2022-12-09T06:47:30.624Z,59.48
2022-12-09T06:50:02.682Z,60.23
2022-12-09T06:52:32.935Z,60.61
2022-12-09T06:54:59.946Z,61.08
2022-12-09T06:57:26.879Z,60.77
2022-12-09T06:59:53.856Z,60.27
2022-12-09T07:02:20.732Z,60.16
2022-12-09T07:04:53.188Z,60.28
2022-12-09T07:07:20.251Z,60.89
2022-12-09T07:09:47.449Z,60.71
2022-12-09T07:12:14.840Z,62.33
2022-12-09T07:14:41.397Z,61.20
2022-12-09T07:17:11.254Z,60.71
2022-12-09T07:19:38.142Z,60.68
2022-12-09T07:22:04.967Z,60.00
2022-12-09T07:24:32.205Z,60.25
2022-12-09T07:27:04.608Z,59.51
2022-12-09T07:29:35.959Z,59.63
2022-12-09T07:32:03.943Z,59.77
2022-12-09T07:34:30.859Z,60.29
2022-12-09T07:36:57.438Z,59.60
2022-12-09T07:39:25.227Z,59.31
2022-12-09T07:41:56.985Z,59.78
2022-12-09T07:44:24.822Z,59.51
2022-12-09T07:46:52.152Z,59.56
2022-12-09T07:49:19.274Z,59.76
2022-12-09T07:51:45.992Z,59.70
2022-12-09T07:54:14.575Z,59.40
2022-12-09T07:56:41.513Z,59.22
2022-12-09T07:59:09.075Z,59.41
2022-12-09T08:01:36.405Z,59.05
2022-12-09T08:04:05.471Z,58.39
2022-12-09T08:06:33.167Z,58.40
2022-12-09T08:09:01.852Z,58.23
2022-12-09T08:11:30.352Z,58.38
2022-12-09T08:13:58.938Z,58.30
2022-12-09T08:16:26.670Z,59.14
2022-12-09T08:18:54.608Z,59.42
2022-12-09T08:21:24.223Z,59.52
2022-12-09T08:23:52.214Z,58.92
2022-12-09T08:26:22.285Z,58.63
2022-12-09T08:28:49.675Z,58.39
2022-12-09T08:31:21.149Z,58.02
2022-12-09T08:33:49.029Z,57.29
2022-12-09T08:36:20.625Z,57.62
2022-12-09T08:38:48.111Z,57.15
2022-12-09T08:41:17.593Z,57.53
2022-12-09T08:43:45.043Z,57.07
2022-12-09T08:46:12.857Z,57.17
2022-12-09T08:48:41.630Z,57.13
2022-12-09T08:51:09.985Z,56.54
2022-12-09T08:53:37.048Z,57.01
2022-12-09T08:56:15.054Z,56.66
2022-12-09T08:58:43.121Z,56.97
2022-12-09T09:01:18.158Z,57.29
2022-12-09T09:03:46.049Z,56.73
2022-12-09T09:06:14.353Z,55.64
2022-12-09T09:08:41.580Z,55.64
2022-12-09T09:11:12.734Z,54.94
2022-12-09T09:13:41.613Z,54.78
2022-12-09T09:16:11.352Z,54.17
2022-12-09T09:18:38.551Z,53.81
2022-12-09T09:21:07.661Z,53.02
2022-12-09T09:23:34.714Z,52.46
2022-12-09T09:26:01.833Z,52.03
2022-12-09T09:28:31.556Z,51.89
2022-12-09T09:31:00.823Z,51.98
2022-12-09T09:33:28.318Z,51.92
2022-12-09T09:36:05.493Z,51.39
2022-12-09T09:38:35.338Z,51.16
2022-12-09T09:41:02.064Z,50.93
2022-12-09T09:43:34.341Z,51.19
2022-12-09T09:46:01.294Z,51.44
2022-12-09T09:48:32.785Z,51.91
2022-12-09T09:51:02.411Z,51.63
2022-12-09T09:53:34.219Z,52.33
2022-12-09T09:56:43.819Z,52.74
2022-12-09T10:00:11.317Z,52.90
2022-12-09T10:03:44.918Z,51.87
2022-12-09T10:06:52.115Z,51.21
2022-12-09T10:09:22.872Z,50.92
2022-12-09T10:11:52.998Z,50.97
2022-12-09T10:14:34.194Z,51.14
2022-12-09T10:17:28.560Z,51.82
2022-12-09T10:20:03.642Z,51.90
2022-12-09T10:22:39.828Z,51.83
2022-12-09T10:25:17.976Z,51.37
2022-12-09T10:28:02.351Z,52.09
2022-12-09T10:30:36.218Z,52.49
2022-12-09T10:33:06.822Z,53.74
2022-12-09T10:35:35.072Z,53.60
2022-12-09T10:38:09.036Z,52.37
2022-12-09T10:40:49.886Z,51.12
2022-12-09T10:43:39.576Z,48.26
2022-12-09T10:46:18.577Z,43.39
2022-12-09T10:48:46.339Z,36.43
2022-12-09T10:51:19.686Z,29.83
2022-12-09T10:54:12.160Z,24.50
2022-12-09T10:57:20.826Z,21.78
2022-12-09T11:00:21.671Z,22.82
2022-12-09T11:02:55.584Z,22.35
2022-12-09T11:05:23.134Z,20.76
2022-12-09T11:07:51.699Z,19.18
2022-12-09T11:10:22.581Z,18.36
2022-12-09T11:12:52.753Z,16.94
2022-12-09T11:15:30.464Z,16.46
2022-12-09T11:18:04.312Z,15.54
2022-12-09T11:20:32.762Z,15.38
2022-12-09T11:22:59.959Z,15.33
2022-12-09T11:25:30.353Z,15.57
2022-12-09T11:28:23.838Z,16.11
2022-12-09T11:31:20.487Z,17.71
2022-12-09T11:33:48.544Z,20.58
2022-12-09T11:36:32.646Z,23.85
2022-12-09T11:39:23.340Z,27.94
2022-12-09T11:42:20.842Z,31.85
2022-12-09T11:44:56.898Z,32.60
2022-12-09T11:50:34.650Z,31.68
2022-12-09T11:53:07.030Z,34.39
2022-12-09T11:55:34.481Z,35.19
2022-12-09T11:58:06.820Z,35.73
2022-12-09T12:00:49.141Z,36.99
2022-12-09T12:03:26.081Z,34.36
2022-12-09T12:05:55.021Z,32.81
2022-12-09T12:08:30.844Z,33.71
2022-12-09T12:10:58.380Z,34.54
2022-12-09T12:13:32.164Z,34.45
2022-12-09T12:16:12.983Z,34.25
2022-12-09T12:19:07.376Z,37.56
2022-12-09T12:22:14.365Z,40.92
2022-12-09T12:24:56.337Z,43.30
2022-12-09T12:27:47.462Z,43.49
2022-12-09T12:30:20.689Z,46.01
2022-12-09T12:36:09.301Z,49.06
2022-12-09T12:38:57.686Z,52.10
2022-12-09T12:41:43.240Z,54.93
2022-12-09T12:44:43.813Z,54.59
2022-12-09T12:47:24.158Z,55.59
2022-12-09T12:49:50.773Z,55.36
2022-12-09T12:52:54.275Z,55.78
2022-12-09T12:55:21.547Z,57.41
2022-12-09T12:58:10.084Z,59.01
2022-12-09T13:01:14.398Z,56.25
2022-12-09T13:03:47.533Z,57.49
2022-12-09T13:06:16.830Z,57.76
2022-12-09T13:08:50.802Z,57.99
2022-12-09T13:11:21.808Z,58.29
2022-12-09T13:13:56.018Z,58.77
2022-12-09T13:16:35.520Z,60.57
2022-12-09T13:19:26.276Z,60.04
2022-12-09T13:21:53.065Z,61.44
2022-12-09T13:24:27.071Z,60.09
2022-12-09T13:27:03.647Z,60.90
2022-12-09T13:29:37.874Z,60.47
2022-12-09T13:32:28.453Z,60.50
2022-12-09T13:35:01.777Z,59.62
2022-12-09T13:37:34.757Z,59.29
2022-12-09T13:40:02.613Z,59.77
2022-12-09T13:42:47.779Z,59.87
2022-12-09T13:45:20.415Z,59.89
2022-12-09T13:47:47.471Z,61.42
2022-12-09T13:50:29.387Z,61.22
2022-12-09T13:52:58.763Z,61.54
2022-12-09T13:55:30.346Z,61.37
2022-12-09T13:58:30.591Z,60.95
2022-12-09T14:01:12.384Z,61.03
2022-12-09T14:03:54.646Z,61.57
2022-12-09T14:06:26.405Z,62.80
2022-12-09T14:08:57.750Z,61.87
2022-12-09T14:11:41.458Z,61.29
2022-12-09T14:14:23.323Z,60.72
2022-12-09T14:17:03.427Z,60.99
2022-12-09T14:19:48.392Z,60.10
2022-12-09T14:22:22.173Z,59.25
2022-12-09T14:24:58.601Z,58.66
2022-12-09T14:27:29.461Z,58.33
2022-12-09T14:30:23.781Z,58.41
2022-12-09T14:32:50.304Z,59.00
2022-12-09T14:35:46.928Z,58.67
2022-12-09T14:38:23.629Z,59.75
2022-12-09T14:40:50.157Z,61.35
2022-12-09T14:43:36.248Z,61.30
2022-12-09T14:46:05.231Z,61.08
2022-12-09T14:48:36.811Z,60.75
2022-12-09T14:51:17.611Z,59.94
2022-12-09T14:53:49.645Z,60.23
2022-12-09T14:56:18.237Z,59.29
2022-12-09T14:58:49.378Z,58.81
2022-12-09T15:01:18.136Z,58.70
2022-12-09T15:03:56.436Z,58.22
2022-12-09T15:06:26.812Z,57.89
2022-12-09T15:08:56.421Z,57.58
2022-12-09T15:11:29.185Z,57.64
2022-12-09T15:14:17.292Z,57.76
2022-12-09T15:16:47.702Z,57.62
2022-12-09T15:19:51.108Z,57.65
2022-12-09T15:22:06.956Z,57.87
2022-12-09T15:24:49.199Z,57.50
2022-12-09T15:27:19.134Z,57.92
2022-12-09T15:29:45.876Z,57.48
2022-12-09T15:32:28.679Z,57.42
2022-12-09T15:34:55.541Z,57.18
2022-12-09T15:37:26.296Z,57.23
2022-12-09T15:40:00.967Z,56.98
2022-12-09T15:42:29.752Z,56.87
2022-12-09T15:44:56.211Z,56.90
2022-12-09T15:47:37.090Z,56.65
2022-12-09T15:50:21.234Z,56.26
2022-12-09T15:52:58.464Z,56.26
2022-12-09T15:55:30.486Z,55.89
2022-12-09T15:57:58.772Z,56.47
2022-12-09T16:00:25.564Z,56.22
2022-12-09T16:02:52.439Z,56.63
2022-12-09T16:05:28.165Z,56.06
2022-12-09T16:08:00.005Z,56.04
2022-12-09T16:10:27.825Z,55.63
2022-12-09T16:13:10.509Z,56.11
2022-12-09T16:15:59.050Z,56.26
2022-12-09T16:18:30.158Z,55.97
2022-12-09T16:21:25.920Z,56.50
2022-12-09T16:23:55.415Z,56.41
2022-12-09T16:26:34.728Z,57.01
2022-12-09T16:29:03.808Z,57.54
2022-12-09T16:31:30.667Z,56.65
2022-12-09T16:33:57.634Z,56.77
2022-12-09T16:36:27.331Z,56.95
2022-12-09T16:39:22.601Z,56.74
2022-12-09T16:41:56.230Z,56.53
2022-12-09T16:44:35.179Z,57.41
2022-12-09T16:47:24.230Z,58.36
2022-12-09T16:49:50.784Z,59.84
2022-12-09T16:52:20.978Z,58.79
2022-12-09T16:54:48.733Z,59.15
2022-12-09T16:57:16.879Z,58.27
2022-12-09T16:59:43.915Z,58.39
2022-12-09T17:02:38.384Z,57.84
2022-12-09T17:05:06.136Z,56.91
2022-12-09T17:07:33.088Z,55.46
2022-12-09T17:09:59.590Z,55.78
2022-12-09T17:12:26.256Z,55.51
2022-12-09T17:14:52.784Z,54.66
2022-12-09T17:17:19.404Z,55.22
2022-12-09T17:19:46.165Z,54.87
2022-12-09T17:22:12.830Z,54.28
2022-12-09T17:24:39.793Z,53.91
2022-12-09T17:27:06.308Z,53.82
2022-12-09T17:29:32.781Z,54.15
2022-12-09T17:32:00.239Z,54.00
2022-12-09T17:34:27.052Z,53.48
2022-12-09T17:36:54.926Z,53.09
2022-12-09T17:39:23.987Z,53.96
2022-12-09T17:41:51.102Z,53.35
2022-12-09T17:44:17.851Z,53.35
2022-12-09T17:46:44.332Z,52.87
2022-12-09T17:49:10.873Z,52.69
2022-12-09T17:51:37.363Z,52.46
2022-12-09T17:54:04.433Z,52.59
2022-12-09T17:56:31.151Z,53.11
2022-12-09T17:59:00.853Z,52.63
2022-12-09T18:01:27.621Z,52.91
2022-12-09T18:04:02.639Z,53.64
2022-12-09T18:06:34.329Z,54.26
2022-12-09T18:09:01.977Z,53.91
2022-12-09T18:11:28.532Z,54.36
2022-12-09T18:13:55.408Z,55.32
2022-12-09T18:16:22.175Z,55.46
2022-12-09T18:18:48.919Z,55.43
2022-12-09T18:21:16.522Z,56.21
2022-12-09T18:23:43.465Z,55.77
2022-12-09T18:26:12.557Z,55.86
2022-12-09T18:28:39.448Z,56.30
2022-12-09T18:31:11.446Z,56.21
2022-12-09T18:33:38.523Z,56.19
2022-12-09T18:36:11.470Z,55.94
2022-12-09T18:38:38.661Z,57.26
2022-12-09T18:41:11.306Z,57.06
2022-12-09T18:43:40.365Z,57.09
2022-12-09T18:46:13.913Z,56.90
2022-12-09T18:48:41.011Z,57.17
2022-12-09T18:51:15.301Z,57.23
2022-12-09T18:53:41.962Z,56.81
2022-12-09T18:56:08.768Z,56.54
2022-12-09T18:59:04.305Z,56.71
2022-12-09T19:01:27.869Z,56.57
2022-12-09T19:03:56.853Z,56.75
2022-12-09T19:06:29.405Z,56.96
2022-12-09T19:08:57.934Z,56.69
2022-12-09T19:11:27.164Z,56.69
2022-12-09T19:13:54.264Z,56.97
2022-12-09T19:16:21.287Z,57.55
2022-12-09T19:18:48.157Z,57.13
2022-12-09T19:21:16.928Z,57.92
2022-12-09T19:23:44.644Z,57.86
2022-12-09T19:26:17.004Z,57.80
2022-12-09T19:28:48.465Z,57.32
2022-12-09T19:31:21.019Z,57.27
2022-12-09T19:33:47.644Z,57.14
2022-12-09T19:36:14.444Z,56.88
2022-12-09T19:38:41.494Z,56.32
2022-12-09T19:41:08.291Z,56.52
2022-12-09T19:43:34.946Z,56.91
2022-12-09T19:46:04.198Z,56.90
2022-12-09T19:48:30.686Z,56.58
2022-12-09T19:50:57.372Z,56.65
2022-12-09T19:53:23.888Z,56.41
2022-12-09T19:55:50.699Z,56.14
2022-12-09T19:58:17.396Z,56.16
2022-12-09T20:00:44.081Z,56.17
2022-12-09T20:03:10.686Z,55.99
2022-12-09T20:05:37.421Z,55.64
2022-12-09T20:08:04.263Z,55.66
2022-12-09T20:10:31.025Z,55.56
2022-12-09T20:12:58.652Z,55.83
2022-12-09T20:15:26.567Z,55.63
2022-12-09T20:17:53.060Z,55.98
2022-12-09T20:20:19.592Z,55.87
2022-12-09T20:22:46.120Z,55.76
2022-12-09T20:25:12.717Z,55.58
2022-12-09T20:27:39.555Z,55.82
2022-12-09T20:30:06.930Z,55.91
2022-12-09T20:32:33.746Z,56.07
2022-12-09T20:35:08.089Z,55.47
2022-12-09T20:37:34.990Z,55.88
2022-12-09T20:40:01.732Z,55.88
2022-12-09T20:42:28.349Z,55.98
2022-12-09T20:44:55.488Z,56.35
2022-12-09T20:47:22.030Z,56.34
2022-12-09T20:49:48.691Z,56.33
2022-12-09T20:52:15.260Z,56.28
2022-12-09T20:54:42.019Z,57.48
2022-12-09T20:57:08.586Z,57.13
2022-12-09T20:59:35.300Z,56.82
2022-12-09T21:02:01.871Z,57.07
2022-12-09T21:04:28.549Z,56.97
2022-12-09T21:06:55.237Z,56.91
2022-12-09T21:09:24.676Z,57.09
2022-12-09T21:11:51.288Z,57.33
2022-12-09T21:14:20.911Z,58.07
2022-12-09T21:16:50.327Z,58.45
2022-12-09T21:19:24.952Z,57.58
2022-12-09T21:21:52.513Z,57.29
2022-12-09T21:24:19.381Z,57.57
2022-12-09T21:26:48.743Z,57.86
2022-12-09T21:29:15.509Z,58.00
2022-12-09T21:31:42.397Z,58.14
2022-12-09T21:34:10.268Z,57.89
2022-12-09T21:36:39.391Z,57.92
2022-12-09T21:39:06.936Z,57.67
2022-12-09T21:41:34.499Z,57.55
2022-12-09T21:44:01.240Z,57.43
2022-12-09T21:46:33.561Z,57.65
2022-12-09T21:49:03.931Z,58.18
2022-12-09T21:51:32.021Z,57.12
2022-12-09T21:53:58.780Z,57.86
2022-12-09T21:56:27.764Z,57.97
2022-12-09T21:58:55.820Z,57.74
2022-12-09T22:01:25.934Z,57.60
2022-12-09T22:03:53.348Z,57.38
2022-12-09T22:06:20.467Z,57.51
2022-12-09T22:08:46.958Z,57.12
2022-12-09T22:11:14.761Z,57.52
2022-12-09T22:13:41.607Z,57.62
2022-12-09T22:16:16.814Z,57.63
2022-12-09T22:18:44.521Z,57.33
2022-12-09T22:21:24.570Z,57.58
2022-12-09T22:23:57.504Z,57.39
2022-12-09T22:26:26.009Z,57.48
2022-12-09T22:28:52.902Z,57.75
2022-12-09T22:31:22.541Z,57.46
2022-12-09T22:33:50.519Z,57.10
2022-12-09T22:36:17.657Z,57.57
2022-12-09T22:38:44.780Z,57.08
2022-12-09T22:41:16.731Z,56.76
2022-12-09T22:43:43.497Z,56.77
2022-12-09T22:46:11.349Z,56.99
2022-12-09T22:48:38.826Z,57.06
2022-12-09T22:51:11.232Z,56.48
2022-12-09T22:53:37.888Z,56.76
2022-12-09T22:56:05.108Z,56.56
2022-12-09T22:58:31.723Z,56.42
2022-12-09T23:00:58.232Z,56.30
2022-12-09T23:03:24.973Z,56.22
2022-12-09T23:05:51.737Z,56.45
2022-12-09T23:08:18.300Z,56.09
2022-12-09T23:10:44.864Z,56.16
2022-12-09T23:13:11.361Z,57.18
2022-12-09T23:15:38.464Z,56.55
2022-12-09T23:18:05.051Z,56.40
2022-12-09T23:20:32.315Z,56.41
2022-12-09T23:22:58.792Z,56.64
2022-12-09T23:25:25.484Z,57.18
2022-12-09T23:27:52.134Z,56.58
2022-12-09T23:30:18.720Z,57.19
2022-12-09T23:32:45.236Z,57.38
2022-12-09T23:35:11.723Z,56.71
2022-12-09T23:37:38.340Z,56.82
2022-12-09T23:40:05.541Z,57.30
2022-12-09T23:42:32.186Z,58.19
2022-12-09T23:44:58.656Z,57.83
2022-12-09T23:47:25.161Z,57.51
2022-12-09T23:49:52.038Z,57.58
2022-12-09T23:52:18.461Z,59.50
2022-12-09T23:54:45.182Z,59.18
2022-12-09T23:57:11.710Z,60.29
2022-12-09T23:59:38.483Z,58.58
